createdAt,value
2022-09-09T00:02:03.419Z,100756.75
2022-09-09T00:04:37.290Z,100755.55
2022-09-09T00:07:18.824Z,100759.59
2022-09-09T00:09:56.370Z,100763.86
2022-09-09T00:12:43.694Z,100765.04
2022-09-09T00:15:21.637Z,100766.45
2022-09-09T00:17:59.836Z,100765.56
2022-09-09T00:20:38.335Z,100769.39
2022-09-09T00:23:20.876Z,100773.25
2022-09-09T00:26:00.680Z,100768.11
2022-09-09T00:28:35.467Z,100766.58
2022-09-09T00:31:15.852Z,100767.90
2022-09-09T00:33:48.987Z,100769.15
2022-09-09T00:36:27.571Z,100763.33
2022-09-09T00:39:03.028Z,100760.71
2022-09-09T00:41:50.441Z,100756.63
2022-09-09T00:44:32.318Z,100761.98
2022-09-09T00:47:21.032Z,100763.41
2022-09-09T00:50:03.421Z,100757.77
2022-09-09T00:52:47.956Z,100750.86
2022-09-09T00:55:28.219Z,100751.27
2022-09-09T00:58:00.322Z,100756.25
2022-09-09T01:00:38.088Z,100753.59
2022-09-09T01:03:29.954Z,100753.46
2022-09-09T01:06:15.390Z,100753.08
2022-09-09T01:09:24.003Z,100749.01
2022-09-09T01:12:04.269Z,100748.70
2022-09-09T01:14:45.416Z,100751.79
2022-09-09T01:17:21.736Z,100754.94
2022-09-09T01:20:01.865Z,100757.21
2022-09-09T01:22:42.529Z,100749.61
2022-09-09T01:25:27.045Z,100753.19
2022-09-09T01:28:01.502Z,100744.59
2022-09-09T01:30:36.041Z,100738.84
2022-09-09T01:33:12.296Z,100737.59
2022-09-09T01:35:51.907Z,100737.37
2022-09-09T01:38:25.411Z,100732.36
2022-09-09T01:40:59.520Z,100735.60
2022-09-09T01:43:32.439Z,100733.61
2022-09-09T01:46:05.529Z,100733.98
2022-09-09T01:48:37.759Z,100732.48
2022-09-09T01:51:12.587Z,100729.52
2022-09-09T01:53:45.910Z,100730.27
2022-09-09T01:56:30.789Z,100735.11
2022-09-09T01:59:15.616Z,100742.66
2022-09-09T02:01:59.751Z,100748.30
2022-09-09T02:04:41.392Z,100747.48
2022-09-09T02:07:42.227Z,100747.67
2022-09-09T02:10:19.979Z,100752.85
2022-09-09T02:12:57.628Z,100754.76
2022-09-09T02:15:34.326Z,100752.71
2022-09-09T02:18:11.175Z,100754.47
2022-09-09T02:20:45.598Z,100755.14
2022-09-09T02:23:20.379Z,100760.27
2022-09-09T02:25:54.140Z,100755.08
2022-09-09T02:28:28.646Z,100756.72
2022-09-09T02:31:01.828Z,100754.60
2022-09-09T02:33:39.434Z,100755.35
2022-09-09T02:36:13.974Z,100752.48
2022-09-09T02:38:51.817Z,100750.45
2022-09-09T02:41:28.344Z,100748.69
2022-09-09T02:44:00.411Z,100747.42
2022-09-09T02:46:51.304Z,100746.59
2022-09-09T02:49:30.132Z,100741.44
2022-09-09T02:52:08.125Z,100741.93
2022-09-09T02:54:42.698Z,100744.16
2022-09-09T02:57:18.519Z,100740.59
2022-09-09T02:59:50.977Z,100736.30
2022-09-09T03:02:23.110Z,100736.64
2022-09-09T03:04:55.238Z,100734.30
2022-09-09T03:07:28.501Z,100731.92
2022-09-09T03:10:00.596Z,100735.09
2022-09-09T03:12:34.685Z,100742.21
2022-09-09T03:15:07.777Z,100738.54
2022-09-09T03:17:39.844Z,100742.05
2022-09-09T03:20:13.594Z,100741.30
2022-09-09T03:22:46.633Z,100746.67
2022-09-09T03:25:19.084Z,100752.46
2022-09-09T03:27:51.159Z,100752.41
2022-09-09T03:30:23.420Z,100749.13
2022-09-09T03:32:56.272Z,100750.15
2022-09-09T03:35:28.393Z,100744.59
2022-09-09T03:38:01.798Z,100742.85
2022-09-09T03:40:33.870Z,100746.04
2022-09-09T03:43:05.941Z,100751.70
2022-09-09T03:45:38.033Z,100751.58
2022-09-09T03:48:12.968Z,100755.18
2022-09-09T03:50:48.873Z,100756.38
2022-09-09T03:53:25.815Z,100753.90
2022-09-09T03:56:01.058Z,100745.73
2022-09-09T03:58:33.402Z,100736.70
2022-09-09T04:01:09.778Z,100734.52
2022-09-09T04:03:42.432Z,100733.47
2022-09-09T04:06:16.076Z,100729.17
2022-09-09T04:08:49.658Z,100725.77
2022-09-09T04:11:21.916Z,100723.89
2022-09-09T04:13:53.992Z,100723.94
2022-09-09T04:16:26.080Z,100725.59
2022-09-09T04:18:59.151Z,100731.92
2022-09-09T04:21:31.198Z,100731.13
2022-09-09T04:24:03.547Z,100730.73
2022-09-09T04:26:35.672Z,100731.78
2022-09-09T04:29:08.842Z,100730.40
2022-09-09T04:31:43.243Z,100730.19
2022-09-09T04:34:15.496Z,100733.86
2022-09-09T04:36:47.661Z,100736.09
2022-09-09T04:39:20.715Z,100747.74
2022-09-09T04:41:54.319Z,100752.50
2022-09-09T04:44:26.405Z,100755.56
2022-09-09T04:46:58.935Z,100746.88
2022-09-09T04:49:32.117Z,100740.48
2022-09-09T04:52:04.592Z,100739.12
2022-09-09T04:54:36.807Z,100740.17
2022-09-09T04:57:09.044Z,100744.59
2022-09-09T04:59:42.081Z,100745.14
2022-09-09T05:02:14.245Z,100749.53
2022-09-09T05:04:47.759Z,100750.10
2022-09-09T05:07:20.171Z,100743.48
2022-09-09T05:09:52.413Z,100738.90
2022-09-09T05:12:26.606Z,100739.93
2022-09-09T05:15:01.683Z,100745.10
2022-09-09T05:17:35.018Z,100749.15
2022-09-09T05:20:10.272Z,100751.15
2022-09-09T05:22:44.138Z,100751.95
2022-09-09T05:25:16.248Z,100747.29
2022-09-09T05:27:48.349Z,100742.60
2022-09-09T05:30:20.667Z,100738.55
2022-09-09T05:32:52.757Z,100739.44
2022-09-09T05:35:24.939Z,100740.91
2022-09-09T05:38:01.256Z,100748.23
2022-09-09T05:40:33.431Z,100745.29
2022-09-09T05:43:05.922Z,100737.95
2022-09-09T05:45:38.080Z,100735.52
2022-09-09T05:48:10.302Z,100727.89
2022-09-09T05:50:42.369Z,100724.30
2022-09-09T05:53:14.600Z,100719.05
2022-09-09T05:55:46.915Z,100715.01
2022-09-09T05:58:19.424Z,100711.01
2022-09-09T06:00:51.632Z,100710.64
2022-09-09T06:03:24.760Z,100708.84
2022-09-09T06:06:06.225Z,100709.14
2022-09-09T06:08:40.648Z,100710.42
2022-09-09T06:11:14.780Z,100707.21
2022-09-09T06:13:48.791Z,100707.23
2022-09-09T06:16:24.228Z,100716.04
2022-09-09T06:18:57.448Z,100713.33
2022-09-09T06:21:31.820Z,100710.23
2022-09-09T06:24:05.104Z,100708.73
2022-09-09T06:26:38.689Z,100710.95
2022-09-09T06:29:11.899Z,100718.45
2022-09-09T06:31:45.010Z,100727.20
2022-09-09T06:34:17.242Z,100726.35
2022-09-09T06:36:49.316Z,100738.14
2022-09-09T06:39:23.554Z,100740.17
2022-09-09T06:41:55.768Z,100730.11
2022-09-09T06:44:31.132Z,100730.09
2022-09-09T06:47:06.305Z,100735.45
2022-09-09T06:49:38.479Z,100736.39
2022-09-09T06:52:10.568Z,100742.85
2022-09-09T06:54:42.911Z,100747.74
2022-09-09T06:57:34.027Z,100748.52
2022-09-09T07:00:09.180Z,100745.65
2022-09-09T07:02:42.259Z,100743.52
2022-09-09T07:05:14.436Z,100737.69
2022-09-09T07:07:46.571Z,100738.08
2022-09-09T07:10:18.747Z,100733.70
2022-09-09T07:12:54.408Z,100728.68
2022-09-09T07:15:28.324Z,100731.46
2022-09-09T07:18:04.939Z,100726.39
2022-09-09T07:20:37.146Z,100726.23
2022-09-09T07:23:09.291Z,100729.75
2022-09-09T07:25:46.360Z,100719.63
2022-09-09T07:28:18.758Z,100725.16
2022-09-09T07:30:59.166Z,100728.65
2022-09-09T07:33:32.566Z,100735.71
2022-09-09T07:36:10.359Z,100738.89
2022-09-09T07:38:47.472Z,100737.27
2022-09-09T07:41:23.327Z,100735.86
2022-09-09T07:43:57.134Z,100738.92
2022-09-09T07:46:30.134Z,100736.22
2022-09-09T07:49:03.314Z,100742.59
2022-09-09T07:51:37.531Z,100738.54
2022-09-09T07:54:12.353Z,100735.55
2022-09-09T07:56:44.758Z,100738.60
2022-09-09T07:59:17.328Z,100744.49
2022-09-09T08:01:54.521Z,100751.54
2022-09-09T08:04:29.281Z,100760.78
2022-09-09T08:07:04.148Z,100764.48
2022-09-09T08:09:36.376Z,100759.61
2022-09-09T08:12:09.355Z,100753.39
2022-09-09T08:14:41.399Z,100751.86
2022-09-09T08:17:13.511Z,100742.52
2022-09-09T08:19:46.354Z,100727.67
2022-09-09T08:22:18.446Z,100725.73
2022-09-09T08:24:50.523Z,100724.79
2022-09-09T08:27:22.908Z,100728.95
2022-09-09T08:29:55.000Z,100733.04
2022-09-09T08:32:27.584Z,100729.41
2022-09-09T08:35:01.218Z,100727.25
2022-09-09T08:37:34.194Z,100725.66
2022-09-09T08:40:07.569Z,100723.14
2022-09-09T08:42:48.071Z,100716.15
2022-09-09T08:45:28.070Z,100712.69
2022-09-09T08:48:16.455Z,100704.20
2022-09-09T08:50:51.644Z,100708.20
2022-09-09T08:53:24.288Z,100704.98
2022-09-09T08:56:00.422Z,100699.31
2022-09-09T08:58:34.977Z,100692.96
2022-09-09T09:01:24.254Z,100691.91
2022-09-09T09:04:08.869Z,100693.42
2022-09-09T09:06:53.091Z,100690.70
2022-09-09T09:09:33.431Z,100688.05
2022-09-09T09:12:19.938Z,100687.62
2022-09-09T09:14:52.261Z,100693.16
2022-09-09T09:17:27.496Z,100689.94
2022-09-09T09:20:01.146Z,100685.52
2022-09-09T09:22:42.055Z,100679.90
2022-09-09T09:25:21.582Z,100673.39
2022-09-09T09:28:06.356Z,100669.67
2022-09-09T09:30:47.192Z,100669.50
2022-09-09T09:33:25.087Z,100672.79
2022-09-09T09:35:57.233Z,100677.86
2022-09-09T09:41:33.178Z,100675.15
2022-09-09T09:44:06.085Z,100676.23
2022-09-09T09:46:38.308Z,100669.75
2022-09-09T09:49:14.867Z,100665.15
2022-09-09T09:51:48.227Z,100668.52
2022-09-09T09:54:25.240Z,100669.43
2022-09-09T09:56:57.400Z,100664.27
2022-09-09T09:59:40.825Z,100664.55
2022-09-09T10:02:25.900Z,100668.34
2022-09-09T10:05:07.244Z,100663.61
2022-09-09T10:07:39.942Z,100658.25
2022-09-09T10:10:22.459Z,100662.21
2022-09-09T10:13:07.862Z,100659.07
2022-09-09T10:15:50.920Z,100664.43
2022-09-09T10:18:47.436Z,100667.11
2022-09-09T10:21:41.151Z,100671.27
2022-09-09T10:24:36.520Z,100675.03
2022-09-09T10:27:22.591Z,100675.77
2022-09-09T10:30:10.167Z,100677.88
2022-09-09T10:32:48.595Z,100678.46
2022-09-09T10:35:31.601Z,100676.52
2022-09-09T10:38:16.338Z,100671.48
2022-09-09T10:41:03.239Z,100665.92
2022-09-09T10:43:50.173Z,100663.39
2022-09-09T10:46:30.988Z,100660.81
2022-09-09T10:49:22.041Z,100654.02
2022-09-09T10:52:04.328Z,100654.00
2022-09-09T10:54:45.735Z,100650.94
2022-09-09T10:57:29.535Z,100650.66
2022-09-09T11:00:06.563Z,100646.81
2022-09-09T11:02:40.577Z,100647.37
2022-09-09T11:05:20.530Z,100643.23
2022-09-09T11:07:58.948Z,100636.95
2022-09-09T11:10:38.703Z,100641.72
2022-09-09T11:13:19.683Z,100637.99
2022-09-09T11:15:55.530Z,100639.04
2022-09-09T11:18:28.299Z,100640.04
2022-09-09T11:21:04.554Z,100635.76
2022-09-09T11:23:43.228Z,100635.86
2022-09-09T11:26:21.518Z,100634.98
2022-09-09T11:29:08.725Z,100633.38
2022-09-09T11:31:54.471Z,100635.64
2022-09-09T11:34:47.131Z,100630.96
2022-09-09T11:37:52.020Z,100633.11
2022-09-09T11:40:27.559Z,100634.55
2022-09-09T11:43:14.552Z,100626.92
2022-09-09T11:46:00.530Z,100625.10
2022-09-09T11:48:39.460Z,100620.21
2022-09-09T11:51:17.169Z,100622.16
2022-09-09T11:53:54.880Z,100621.17
2022-09-09T11:56:33.006Z,100620.30
2022-09-09T11:59:07.372Z,100620.80
2022-09-09T12:01:42.783Z,100619.70
2022-09-09T12:04:37.911Z,100614.77
2022-09-09T12:07:32.003Z,100607.31
2022-09-09T12:10:21.708Z,100606.09
2022-09-09T12:12:53.807Z,100597.65
2022-09-09T12:15:29.994Z,100596.48
2022-09-09T12:18:03.815Z,100594.85
2022-09-09T12:20:40.001Z,100587.92
2022-09-09T12:23:32.094Z,100580.98
2022-09-09T12:26:18.047Z,100577.15
2022-09-09T12:28:59.903Z,100579.45
2022-09-09T12:31:37.341Z,100573.89
2022-09-09T12:34:17.478Z,100574.21
2022-09-09T12:36:56.230Z,100568.07
2022-09-09T12:39:35.720Z,100566.88
2022-09-09T12:42:18.015Z,100569.46
2022-09-09T12:44:58.600Z,100567.35
2022-09-09T12:47:39.811Z,100562.54
2022-09-09T12:50:21.171Z,100562.05
2022-09-09T12:52:56.223Z,100561.73
2022-09-09T12:55:31.191Z,100567.22
2022-09-09T12:58:05.667Z,100560.48
2022-09-09T13:00:38.284Z,100562.91
2022-09-09T13:03:22.052Z,100562.30
2022-09-09T13:05:55.490Z,100558.37
2022-09-09T13:08:27.976Z,100555.98
2022-09-09T13:11:04.340Z,100549.89
2022-09-09T13:13:40.859Z,100547.92
2022-09-09T13:16:25.198Z,100539.58
2022-09-09T13:18:57.801Z,100539.31
2022-09-09T13:21:38.993Z,100536.08
2022-09-09T13:24:31.452Z,100532.08
2022-09-09T13:27:05.833Z,100536.38
2022-09-09T13:29:38.501Z,100531.11
2022-09-09T13:32:19.919Z,100526.97
2022-09-09T13:34:57.204Z,100527.62
2022-09-09T13:37:35.203Z,100521.95
2022-09-09T13:40:19.243Z,100516.21
2022-09-09T13:42:54.290Z,100518.51
2022-09-09T13:45:28.509Z,100520.15
2022-09-09T13:48:11.230Z,100518.17
2022-09-09T13:50:43.928Z,100514.84
2022-09-09T13:53:16.296Z,100518.90
2022-09-09T13:55:52.084Z,100517.24
2022-09-09T13:58:26.362Z,100518.93
2022-09-09T14:00:58.501Z,100519.65
2022-09-09T14:03:31.244Z,100524.57
2022-09-09T14:06:03.423Z,100520.52
2022-09-09T14:08:38.448Z,100518.63
2022-09-09T14:11:14.902Z,100519.52
2022-09-09T14:13:47.855Z,100513.95
2022-09-09T14:16:21.573Z,100507.66
2022-09-09T14:18:53.676Z,100505.30
2022-09-09T14:21:26.068Z,100504.34
2022-09-09T14:23:58.977Z,100500.58
2022-09-09T14:26:31.260Z,100491.55
2022-09-09T14:29:03.779Z,100491.21
2022-09-09T14:31:36.371Z,100486.83
2022-09-09T14:34:08.895Z,100487.88
2022-09-09T14:36:42.513Z,100486.95
2022-09-09T14:39:14.865Z,100487.83
2022-09-09T14:41:47.025Z,100490.25
2022-09-09T14:44:19.932Z,100491.83
2022-09-09T14:46:52.488Z,100494.23
2022-09-09T14:49:24.516Z,100499.16
2022-09-09T14:51:56.586Z,100498.42
2022-09-09T14:54:29.420Z,100498.45
2022-09-09T14:57:01.914Z,100489.79
2022-09-09T14:59:34.014Z,100497.66
2022-09-09T15:02:06.575Z,100494.85
2022-09-09T15:04:38.700Z,100497.30
2022-09-09T15:07:11.898Z,100497.84
2022-09-09T15:09:43.956Z,100498.38
2022-09-09T15:12:16.766Z,100496.05
2022-09-09T15:14:49.300Z,100499.20
2022-09-09T15:17:21.688Z,100507.20
2022-09-09T15:19:53.726Z,100510.37
2022-09-09T15:22:26.359Z,100510.31
2022-09-09T15:24:58.399Z,100513.64
2022-09-09T15:27:32.516Z,100513.77
2022-09-09T15:30:05.103Z,100515.87
2022-09-09T15:32:37.202Z,100515.55
2022-09-09T15:35:11.109Z,100515.63
2022-09-09T15:37:43.237Z,100518.88
2022-09-09T15:40:15.882Z,100521.31
2022-09-09T15:42:48.864Z,100520.18
2022-09-09T15:45:21.777Z,100520.69
2022-09-09T15:47:53.968Z,100517.65
2022-09-09T15:50:26.132Z,100514.98
2022-09-09T15:52:58.156Z,100509.81
2022-09-09T15:55:30.912Z,100509.23
2022-09-09T15:58:03.004Z,100511.28
2022-09-09T16:00:35.487Z,100514.15
2022-09-09T16:03:07.976Z,100516.27
2022-09-09T16:05:40.048Z,100519.79
2022-09-09T16:08:12.520Z,100522.62
2022-09-09T16:10:45.141Z,100513.52
2022-09-09T16:13:17.532Z,100510.77
2022-09-09T16:15:55.835Z,100509.61
2022-09-09T16:18:27.965Z,100505.25
2022-09-09T16:21:00.162Z,100503.38
2022-09-09T16:23:32.637Z,100493.08
2022-09-09T16:26:06.005Z,100494.32
2022-09-09T16:28:38.201Z,100495.73
2022-09-09T16:31:12.162Z,100495.70
2022-09-09T16:33:44.533Z,100497.81
2022-09-09T16:36:18.751Z,100496.05
2022-09-09T16:38:54.146Z,100500.54
2022-09-09T16:41:27.036Z,100505.74
2022-09-09T16:44:00.447Z,100510.14
2022-09-09T16:46:35.103Z,100510.86
2022-09-09T16:49:09.356Z,100507.02
2022-09-09T16:51:44.747Z,100509.73
2022-09-09T16:54:18.373Z,100508.42
2022-09-09T16:56:52.168Z,100513.27
2022-09-09T16:59:25.212Z,100511.37
2022-09-09T17:01:57.413Z,100511.05
2022-09-09T17:04:32.040Z,100511.73
2022-09-09T17:07:04.098Z,100514.42
2022-09-09T17:09:36.309Z,100522.90
2022-09-09T17:12:10.341Z,100524.77
2022-09-09T17:14:42.598Z,100518.29
2022-09-09T17:17:31.292Z,100516.88
2022-09-09T17:20:07.179Z,100517.80
2022-09-09T17:22:39.647Z,100516.63
2022-09-09T17:25:12.862Z,100515.55
2022-09-09T17:27:45.804Z,100515.37
2022-09-09T17:30:18.391Z,100520.56
2022-09-09T17:32:50.538Z,100531.23
2022-09-09T17:35:22.846Z,100538.66
2022-09-09T17:37:57.171Z,100536.84
2022-09-09T17:40:29.400Z,100538.73
2022-09-09T17:43:02.511Z,100541.41
2022-09-09T17:45:34.595Z,100544.75
2022-09-09T17:48:08.107Z,100552.58
2022-09-09T17:50:40.275Z,100549.61
2022-09-09T17:53:12.287Z,100549.41
2022-09-09T17:55:44.897Z,100552.33
2022-09-09T17:58:17.007Z,100549.91
2022-09-09T18:00:49.336Z,100555.45
2022-09-09T18:03:21.492Z,100564.65
2022-09-09T18:05:53.741Z,100568.09
2022-09-09T18:08:27.783Z,100565.85
2022-09-09T18:11:01.475Z,100561.70
2022-09-09T18:13:34.627Z,100557.79
2022-09-09T18:16:11.351Z,100557.33
2022-09-09T18:18:43.418Z,100555.38
2022-09-09T18:21:15.660Z,100556.33
2022-09-09T18:23:51.015Z,100560.97
2022-09-09T18:26:25.954Z,100562.79
2022-09-09T18:29:01.387Z,100566.63
2022-09-09T18:31:35.367Z,100564.89
2022-09-09T18:34:10.051Z,100567.33
2022-09-09T18:36:43.583Z,100577.45
2022-09-09T18:39:18.464Z,100578.02
2022-09-09T18:41:53.102Z,100582.17
2022-09-09T18:44:27.569Z,100588.17
2022-09-09T18:46:59.946Z,100588.84
2022-09-09T18:49:33.349Z,100595.42
2022-09-09T18:52:08.724Z,100597.48
2022-09-09T18:54:46.223Z,100596.50
2022-09-09T18:57:18.778Z,100598.09
2022-09-09T18:59:51.794Z,100594.02
2022-09-09T19:02:23.952Z,100596.39
2022-09-09T19:04:56.428Z,100597.45
2022-09-09T19:07:28.635Z,100594.92
2022-09-09T19:10:02.307Z,100597.05
2022-09-09T19:12:34.651Z,100591.10
2022-09-09T19:15:07.856Z,100585.63
2022-09-09T19:17:39.911Z,100581.33
2022-09-09T19:20:13.056Z,100578.55
2022-09-09T19:22:45.278Z,100567.56
2022-09-09T19:25:17.582Z,100564.39
2022-09-09T19:27:49.723Z,100560.16
2022-09-09T19:30:22.212Z,100558.92
2022-09-09T19:32:54.359Z,100560.17
2022-09-09T19:35:26.534Z,100557.48
2022-09-09T19:38:01.368Z,100558.30
2022-09-09T19:40:36.344Z,100559.14
2022-09-09T19:43:08.540Z,100555.56
2022-09-09T19:45:41.037Z,100557.17
2022-09-09T19:48:14.540Z,100558.08
2022-09-09T19:50:46.595Z,100555.67
2022-09-09T19:53:19.515Z,100557.73
2022-09-09T19:55:53.479Z,100554.05
2022-09-09T19:58:25.557Z,100553.45
2022-09-09T20:00:58.194Z,100553.90
2022-09-09T20:03:30.291Z,100557.16
2022-09-09T20:06:03.015Z,100558.38
2022-09-09T20:08:35.753Z,100558.40
2022-09-09T20:11:09.426Z,100557.66
2022-09-09T20:13:42.979Z,100546.52
2022-09-09T20:16:17.245Z,100549.08
2022-09-09T20:18:52.616Z,100553.18
2022-09-09T20:21:24.225Z,100551.11
2022-09-09T20:23:57.059Z,100555.67
2022-09-09T20:26:31.203Z,100557.59
2022-09-09T20:29:05.712Z,100560.35
2022-09-09T20:31:40.581Z,100559.72
2022-09-09T20:34:14.524Z,100561.92
2022-09-09T20:36:47.288Z,100565.67
2022-09-09T20:39:21.007Z,100564.34
2022-09-09T20:41:53.744Z,100572.02
2022-09-09T20:44:26.560Z,100568.39
2022-09-09T20:47:02.963Z,100573.02
2022-09-09T20:49:36.408Z,100570.22
2022-09-09T20:52:11.130Z,100569.36
2022-09-09T20:54:43.207Z,100571.26
2022-09-09T20:57:20.218Z,100564.51
2022-09-09T20:59:52.731Z,100570.45
2022-09-09T21:02:24.923Z,100572.52
2022-09-09T21:04:57.010Z,100569.50
2022-09-09T21:07:29.116Z,100570.53
2022-09-09T21:10:02.187Z,100566.88
2022-09-09T21:12:34.328Z,100567.32
2022-09-09T21:15:07.627Z,100574.24
2022-09-09T21:17:40.349Z,100572.23
2022-09-09T21:20:14.171Z,100570.80
2022-09-09T21:22:47.003Z,100568.39
2022-09-09T21:25:19.325Z,100566.95
2022-09-09T21:27:51.358Z,100560.84
2022-09-09T21:30:32.952Z,100555.45
2022-09-09T21:33:10.396Z,100559.39
2022-09-09T21:35:43.385Z,100558.20
2022-09-09T21:38:17.437Z,100556.52
2022-09-09T21:40:50.839Z,100554.30
2022-09-09T21:43:23.737Z,100552.21
2022-09-09T21:45:55.846Z,100555.64
2022-09-09T21:48:28.131Z,100559.14
2022-09-09T21:51:05.914Z,100558.50
2022-09-09T21:53:38.661Z,100556.14
2022-09-09T21:56:14.247Z,100557.77
2022-09-09T21:58:47.980Z,100552.42
2022-09-09T22:01:21.278Z,100557.52
2022-09-09T22:03:53.602Z,100558.44
2022-09-09T22:06:25.714Z,100563.48
2022-09-09T22:08:59.217Z,100560.12
2022-09-09T22:11:31.884Z,100555.97
2022-09-09T22:14:04.215Z,100555.42
2022-09-09T22:16:36.744Z,100551.07
2022-09-09T22:19:08.822Z,100547.21
2022-09-09T22:21:40.932Z,100544.15
2022-09-09T22:24:13.267Z,100541.81
2022-09-09T22:26:45.382Z,100535.73
2022-09-09T22:29:17.580Z,100526.62
2022-09-09T22:31:50.123Z,100527.05
2022-09-09T22:34:22.182Z,100521.71
2022-09-09T22:36:54.234Z,100521.19
2022-09-09T22:39:26.454Z,100520.23
2022-09-09T22:41:59.236Z,100514.20
2022-09-09T22:44:31.937Z,100515.69
2022-09-09T22:47:04.766Z,100516.28
2022-09-09T22:49:37.449Z,100514.98
2022-09-09T22:52:10.591Z,100520.56
2022-09-09T22:54:46.637Z,100519.96
2022-09-09T22:57:18.679Z,100511.30
2022-09-09T22:59:51.229Z,100510.05
2022-09-09T23:02:23.452Z,100510.05
2022-09-09T23:04:55.564Z,100509.92
2022-09-09T23:07:27.706Z,100505.20
2022-09-09T23:09:59.817Z,100503.89
2022-09-09T23:12:31.967Z,100508.05
2022-09-09T23:15:07.296Z,100507.73
2022-09-09T23:17:39.707Z,100500.96
2022-09-09T23:20:12.748Z,100496.73
2022-09-09T23:22:44.804Z,100497.48
2022-09-09T23:25:17.533Z,100496.73
2022-09-09T23:27:49.617Z,100496.43
2022-09-09T23:30:21.710Z,100494.58
2022-09-09T23:32:53.810Z,100498.02
2022-09-09T23:35:26.735Z,100496.41
2022-09-09T23:38:00.159Z,100498.34
2022-09-09T23:40:32.179Z,100490.32
2022-09-09T23:43:05.140Z,100492.08
2022-09-09T23:45:37.183Z,100494.06
2022-09-09T23:48:09.335Z,100499.29
2022-09-09T23:50:41.714Z,100501.09
2022-09-09T23:53:15.706Z,100498.95
2022-09-09T23:55:47.825Z,100494.42
2022-09-09T23:58:20.560Z,100494.05
